Time;durP1;ratioP1;P1;durP2;ratioP2;P2;SDS_P1;SDS_P2;PMS_P1;PMS_P2;Temp;Humidity;BMP_temperature;BMP_pressure;BME280_temperature;BME280_humidity;BME280_pressure;Samples;Min_cycle;Max_cycle;Signal;HPM_P1;HPM_P2
2022/11/30 00:00:33;;;;;;;18.75;6.70;;;;;;;;;;5040447;28;20025;-82
2022/11/30 00:02:59;;;;;;;18.73;6.78;;;;;;;;;;5038271;28;20030;-82
2022/11/30 00:05:25;;;;;;;15.30;6.78;;;;;;;;;;5038147;28;20053;-80
2022/11/30 00:07:53;;;;;;;17.80;6.82;;;;;;;;;;5036749;28;20498;-81
2022/11/30 00:10:19;;;;;;;21.73;7.18;;;;;;;;;;5034254;28;20041;-80
2022/11/30 00:12:45;;;;;;;15.63;6.63;;;;;;;;;;5038992;28;20100;-80
2022/11/30 00:15:13;;;;;;;14.65;7.40;;;;;;;;;;5038270;28;20050;-80
2022/11/30 00:17:39;;;;;;;15.48;6.28;;;;;;;;;;5041586;28;20041;-80
2022/11/30 00:20:06;;;;;;;14.48;6.90;;;;;;;;;;5039940;28;20044;-80
2022/11/30 00:22:32;;;;;;;16.42;7.03;;;;;;;;;;5041332;28;20075;-79
2022/11/30 00:25:02;;;;;;;16.98;6.97;;;;;;;;;;5045632;28;20057;-81
2022/11/30 00:27:28;;;;;;;11.07;6.22;;;;;;;;;;5045721;28;20112;-80
2022/11/30 00:29:54;;;;;;;17.77;7.93;;;;;;;;;;5038267;28;20044;-79
2022/11/30 00:32:20;;;;;;;19.27;7.90;;;;;;;;;;5038432;28;20025;-79
2022/11/30 00:34:46;;;;;;;13.35;6.70;;;;;;;;;;5036209;28;20048;-80
2022/11/30 00:37:13;;;;;;;15.77;6.85;;;;;;;;;;5041617;28;20031;-80
2022/11/30 00:39:39;;;;;;;20.98;8.50;;;;;;;;;;5035432;28;20045;-82
2022/11/30 00:42:05;;;;;;;18.23;7.07;;;;;;;;;;5030526;28;20025;-79
2022/11/30 00:44:31;;;;;;;20.73;8.18;;;;;;;;;;5035966;28;20044;-79
2022/11/30 00:46:57;;;;;;;18.90;8.10;;;;;;;;;;5031209;28;20025;-80
2022/11/30 00:49:23;;;;;;;19.23;6.82;;;;;;;;;;5026115;28;20038;-80
2022/11/30 00:51:48;;;;;;;18.55;7.45;;;;;;;;;;5045368;28;20028;-79
2022/11/30 00:54:14;;;;;;;19.35;8.52;;;;;;;;;;5036361;28;20041;-80
2022/11/30 00:56:40;;;;;;;17.48;7.05;;;;;;;;;;5039526;28;20028;-81
2022/11/30 00:59:06;;;;;;;16.67;7.38;;;;;;;;;;5040989;28;20033;-81
2022/11/30 01:01:32;;;;;;;16.55;7.43;;;;;;;;;;5023971;28;20033;-80
2022/11/30 01:03:58;;;;;;;18.33;6.88;;;;;;;;;;5025225;28;20044;-80
2022/11/30 01:06:24;;;;;;;14.82;5.82;;;;;;;;;;5034092;28;20017;-81
2022/11/30 01:08:50;;;;;;;18.20;5.78;;;;;;;;;;5036343;28;20249;-79
2022/11/30 01:11:26;;;;;;;12.38;6.43;;;;;;;;;;5040880;28;20104;-81
2022/11/30 01:13:53;;;;;;;12.23;5.90;;;;;;;;;;5033868;28;20526;-80
2022/11/30 01:16:21;;;;;;;13.70;6.75;;;;;;;;;;5038771;28;20030;-79
2022/11/30 01:18:48;;;;;;;15.60;6.03;;;;;;;;;;5035396;28;20031;-80
2022/11/30 01:21:16;;;;;;;15.40;5.70;;;6.00;99.90;;;;;;5024757;28;20068;-80
2022/11/30 01:23:42;;;;;;;16.38;6.60;;;;;;;;;;5040561;28;20025;-80
2022/11/30 01:26:09;;;;;;;12.77;6.28;;;;;;;;;;5041814;28;20072;-78
2022/11/30 01:28:35;;;;;;;13.45;5.93;;;;;;;;;;5039477;28;21879;-80
2022/11/30 01:31:06;;;;;;;14.60;6.28;;;;;;;;;;5031717;28;20125;-79
2022/11/30 01:33:32;;;;;;;19.88;7.05;;;;;;;;;;5029120;28;20041;-81
2022/11/30 01:36:10;;;;;;;11.80;5.50;;;;;;;;;;5032997;28;20448;-79
2022/11/30 01:38:37;;;;;;;10.98;5.85;;;;;;;;;;5026877;28;20021;-82
2022/11/30 01:41:03;;;;;;;17.45;6.43;;;6.10;99.90;;;;;;5033782;28;20096;-80
2022/11/30 01:43:43;;;;;;;10.75;5.70;;;;;;;;;;5032267;28;20056;-80
2022/11/30 01:46:32;;;;;;;14.77;5.47;;;;;;;;;;5040911;28;20061;-79
2022/11/30 01:49:04;;;;;;;13.60;6.05;;;;;;;;;;5002510;28;20037;-79
2022/11/30 01:51:34;;;;;;;13.20;6.47;;;;;;;;;;5038565;28;20044;-81
2022/11/30 01:54:00;;;;;;;14.43;4.70;;;;;;;;;;5039003;28;20407;-81
2022/11/30 01:56:26;;;;;;;14.50;5.65;;;;;;;;;;5040910;28;21311;-81
2022/11/30 01:58:53;;;;;;;10.40;5.13;;;;;;;;;;5036933;28;20031;-80
2022/11/30 02:01:18;;;;;;;12.52;5.43;;;;;;;;;;5031237;28;20084;-80
2022/11/30 02:04:02;;;;;;;15.07;5.53;;;;;;;;;;5028751;28;20273;-80
2022/11/30 02:06:29;;;;;;;10.95;5.57;;;;;;;;;;5027483;28;20044;-80
2022/11/30 02:08:55;;;;;;;8.82;4.70;;;5.60;99.90;;;;;;5036066;28;20063;-80
2022/11/30 02:11:21;;;;;;;10.18;5.22;;;;;;;;;;5032652;28;20084;-80
2022/11/30 02:13:55;;;;;;;11.48;5.72;;;5.40;99.90;;;;;;5036426;28;20037;-80
2022/11/30 02:16:45;;;;;;;9.52;4.65;;;6.30;99.90;;;;;;5025651;28;20048;-79
2022/11/30 02:19:33;;;;;;;11.40;5.30;;;;;;;;;;5024458;28;20041;-80
2022/11/30 02:22:04;;;;;;;10.43;5.38;;;;;;;;;;5032568;28;20715;-81
2022/11/30 02:24:38;;;;;;;11.32;5.53;;;6.20;99.90;;;;;;5025310;28;20026;-79
2022/11/30 02:27:16;;;;;;;8.65;4.15;;;6.20;99.90;;;;;;5024984;28;20037;-79
2022/11/30 02:29:51;;;;;;;15.20;5.45;;;6.00;99.90;;;;;;5025746;28;20083;-80
2022/11/30 02:32:27;;;;;;;11.80;5.07;;;6.10;99.90;;;;;;5032937;28;20055;-79
2022/11/30 02:34:56;;;;;;;12.45;5.22;;;;;;;;;;5022551;28;20281;-81
2022/11/30 02:37:22;;;;;;;11.30;5.50;;;;;;;;;;5036173;28;20494;-79
2022/11/30 02:39:48;;;;;;;9.95;4.38;;;;;;;;;;5031677;28;20396;-79
2022/11/30 02:42:14;;;;;;;11.45;5.25;;;;;;;;;;5029141;28;20112;-81
2022/11/30 02:44:42;;;;;;;14.48;5.63;;;;;;;;;;5024162;28;20040;-80
2022/11/30 02:47:28;;;;;;;12.90;5.57;;;;;;;;;;5018405;28;20029;-79
2022/11/30 02:50:00;;;;;;;10.60;4.65;;;;;;;;;;4994005;28;20032;-79
2022/11/30 02:52:27;;;;;;;10.15;4.70;;;;;;;;;;5026005;28;20121;-80
2022/11/30 02:54:58;;;;;;;19.48;6.50;;;;;;;;;;5028958;28;20113;-79
2022/11/30 02:57:24;;;;;;;6.45;4.47;;;;;;;;;;5030636;28;20144;-80
2022/11/30 02:59:50;;;;;;;12.43;5.97;;;;;;;;;;5030918;28;20087;-81
2022/11/30 03:02:16;;;;;;;11.07;5.03;;;;;;;;;;5029748;28;20026;-78
2022/11/30 03:04:42;;;;;;;9.00;4.78;;;;;;;;;;5035967;28;20025;-81
2022/11/30 03:07:08;;;;;;;15.05;5.80;;;;;;;;;;5038361;28;20032;-80
2022/11/30 03:09:33;;;;;;;11.32;4.40;;;;;;;;;;5024959;28;20030;-80
2022/11/30 03:12:00;;;;;;;11.52;5.55;;;;;;;;;;5024145;28;20029;-80
2022/11/30 03:14:25;;;;;;;13.00;5.90;;;;;;;;;;5030256;28;20056;-80
2022/11/30 03:16:51;;;;;;;9.15;4.53;;;;;;;;;;5026986;28;20026;-82
2022/11/30 03:19:17;;;;;;;15.02;5.15;;;;;;;;;;5035240;28;20028;-81
2022/11/30 03:21:43;;;;;;;10.90;5.70;;;;;;;;;;5023095;28;20067;-79
2022/11/30 03:24:09;;;;;;;12.55;5.65;;;;;;;;;;5032964;28;20034;-78
2022/11/30 03:26:35;;;;;;;10.02;4.90;;;;;;;;;;5027741;28;20041;-79
2022/11/30 03:29:01;;;;;;;13.40;5.72;;;;;;;;;;5026289;28;20040;-80
2022/11/30 03:31:27;;;;;;;10.23;5.43;;;;;;;;;;5030153;28;20054;-80
2022/11/30 03:33:53;;;;;;;12.02;5.15;;;;;;;;;;5027300;28;20032;-79
2022/11/30 03:36:19;;;;;;;12.40;5.03;;;;;;;;;;5029914;28;20030;-82
2022/11/30 03:38:46;;;;;;;12.50;5.07;;;;;;;;;;5032486;28;20021;-79
2022/11/30 03:41:13;;;;;;;8.88;4.32;;;;;;;;;;5022714;28;20647;-79
2022/11/30 03:43:40;;;;;;;9.75;4.65;;;;;;;;;;5030076;28;20038;-79
2022/11/30 03:46:06;;;;;;;11.65;5.15;;;;;;;;;;5024317;28;20026;-80
2022/11/30 03:48:32;;;;;;;17.08;5.68;;;;;;;;;;5016197;28;20114;-80
2022/11/30 03:50:58;;;;;;;13.70;6.32;;;;;;;;;;5018012;28;20471;-80
2022/11/30 03:53:24;;;;;;;10.77;4.85;;;;;;;;;;5032520;28;20128;-79
2022/11/30 03:55:58;;;;;;;13.38;6.05;;;;;;;;;;5032552;28;20052;-81
2022/11/30 03:58:24;;;;;;;12.40;5.55;;;5.60;99.90;;;;;;5033666;28;20487;-79
2022/11/30 04:01:00;;;;;;;12.25;5.90;;;5.50;99.90;;;;;;5023283;28;20032;-79
2022/11/30 04:03:26;;;;;;;12.45;6.63;;;;;;;;;;5037869;28;20037;-79
2022/11/30 04:05:52;;;;;;;14.40;6.07;;;;;;;;;;5032760;28;20037;-79
2022/11/30 04:08:18;;;;;;;11.55;5.10;;;;;;;;;;5028523;28;20037;-80
2022/11/30 04:10:50;;;;;;;9.85;4.72;;;;;;;;;;5026653;28;20047;-80
2022/11/30 04:13:15;;;;;;;14.07;5.72;;;;;;;;;;5032282;28;20044;-79
2022/11/30 04:15:41;;;;;;;17.73;6.57;;;;;;;;;;5026408;28;20037;-79
2022/11/30 04:18:07;;;;;;;18.95;6.28;;;;;;;;;;5027063;28;20029;-80
2022/11/30 04:20:33;;;;;;;14.13;6.35;;;;;;;;;;5027180;28;20030;-79
2022/11/30 04:22:59;;;;;;;13.45;5.97;;;;;;;;;;5033373;28;20034;-80
2022/11/30 04:25:25;;;;;;;11.73;5.53;;;;;;;;;;5031657;28;20043;-79
2022/11/30 04:27:51;;;;;;;14.25;5.90;;;;;;;;;;5032754;28;20048;-79
2022/11/30 04:30:17;;;;;;;12.07;6.47;;;;;;;;;;5022819;28;20017;-79
2022/11/30 04:32:43;;;;;;;16.27;6.00;;;;;;;;;;5035918;28;20036;-79
2022/11/30 04:35:10;;;;;;;9.68;5.45;;;;;;;;;;5036552;28;20025;-79
2022/11/30 04:37:36;;;;;;;10.52;5.57;;;;;;;;;;5035971;28;20025;-79
2022/11/30 04:40:02;;;;;;;9.20;4.97;;;;;;;;;;5035283;28;20029;-80
2022/11/30 04:42:28;;;;;;;8.93;5.05;;;;;;;;;;5022437;28;20032;-81
2022/11/30 04:44:54;;;;;;;10.20;4.70;;;;;;;;;;5033314;28;20018;-79
2022/11/30 04:47:20;;;;;;;11.55;5.43;;;;;;;;;;5030763;28;20112;-78
2022/11/30 04:49:46;;;;;;;11.40;5.65;;;;;;;;;;5021782;28;20461;-81
2022/11/30 04:52:12;;;;;;;11.68;5.03;;;;;;;;;;5031712;28;20044;-81
2022/11/30 04:54:38;;;;;;;14.57;5.30;;;;;;;;;;5033118;28;20042;-81
2022/11/30 04:57:05;;;;;;;13.65;5.60;;;;;;;;;;5024741;28;20382;-79
2022/11/30 04:59:31;;;;;;;13.95;6.18;;;;;;;;;;5036467;28;20028;-79
2022/11/30 05:01:57;;;;;;;16.10;8.13;;;;;;;;;;5014269;28;20037;-79
2022/11/30 05:04:23;;;;;;;15.73;6.28;;;;;;;;;;5018799;28;20120;-79
2022/11/30 05:06:49;;;;;;;22.67;7.38;;;;;;;;;;5033054;28;20591;-80
2022/11/30 05:09:15;;;;;;;17.40;7.45;;;;;;;;;;5033634;28;20053;-80
2022/11/30 05:11:41;;;;;;;14.20;6.57;;;;;;;;;;5028823;28;20040;-82
2022/11/30 05:14:07;;;;;;;14.85;7.05;;;;;;;;;;5038865;28;20446;-81
2022/11/30 05:16:33;;;;;;;22.98;7.50;;;;;;;;;;5032923;28;20033;-79
2022/11/30 05:18:59;;;;;;;14.00;6.13;;;;;;;;;;5034309;28;20033;-80
2022/11/30 05:21:25;;;;;;;21.08;7.35;;;;;;;;;;5038691;28;20057;-81
2022/11/30 05:23:51;;;;;;;24.25;8.48;;;;;;;;;;5045409;28;20468;-81
2022/11/30 05:26:17;;;;;;;19.02;7.82;;;;;;;;;;5029316;28;20055;-79
2022/11/30 05:28:43;;;;;;;18.80;7.85;;;;;;;;;;5032919;28;20034;-82
2022/11/30 05:31:09;;;;;;;16.60;7.35;;;;;;;;;;5041891;28;20030;-80
2022/11/30 05:33:35;;;;;;;12.98;6.57;;;;;;;;;;5048168;28;20198;-81
2022/11/30 05:36:01;;;;;;;16.20;6.75;;;;;;;;;;5027690;28;20112;-81
2022/11/30 05:38:27;;;;;;;13.52;5.93;;;;;;;;;;5038352;28;20589;-79
2022/11/30 05:40:58;;;;;;;17.17;5.97;;;;;;;;;;5026644;28;20033;-79
2022/11/30 05:43:24;;;;;;;16.23;5.88;;;;;;;;;;5028614;28;23210;-80
2022/11/30 05:45:50;;;;;;;15.40;6.85;;;;;;;;;;5020703;28;20036;-78
2022/11/30 05:48:16;;;;;;;11.68;6.30;;;;;;;;;;5032892;28;20026;-79
2022/11/30 05:50:42;;;;;;;18.35;7.22;;;;;;;;;;5030103;28;20029;-79
2022/11/30 05:53:08;;;;;;;19.25;7.20;;;;;;;;;;5026874;28;20513;-78
2022/11/30 05:55:35;;;;;;;16.50;6.15;;;;;;;;;;5034849;28;20109;-79
2022/11/30 05:58:01;;;;;;;20.88;9.02;;;;;;;;;;5039618;28;20518;-78
2022/11/30 06:00:27;;;;;;;15.90;6.97;;;;;;;;;;5030494;28;20467;-80
2022/11/30 06:02:57;;;;;;;17.38;8.40;;;;;;;;;;5040534;28;20036;-82
2022/11/30 06:05:23;;;;;;;15.82;6.03;;;;;;;;;;5024682;28;20038;-79
2022/11/30 06:07:49;;;;;;;23.98;6.95;;;;;;;;;;5024468;28;20144;-79
2022/11/30 06:10:15;;;;;;;24.80;7.78;;;;;;;;;;5027547;28;20108;-79
2022/11/30 06:12:41;;;;;;;21.95;7.50;;;;;;;;;;5025700;28;20396;-79
2022/11/30 06:15:07;;;;;;;22.63;9.30;;;6.70;99.90;;;;;;5025837;28;20025;-79
2022/11/30 06:17:36;;;;;;;14.40;6.82;;;;;;;;;;5025005;28;20026;-80
2022/11/30 06:20:03;;;;;;;16.55;6.90;;;6.70;99.90;;;;;;5018468;28;20037;-79
2022/11/30 06:22:29;;;;;;;13.63;5.50;;;;;;;;;;5027810;28;20025;-79
2022/11/30 06:24:55;;;;;;;19.33;7.47;;;;;;;;;;5032492;28;20220;-79
2022/11/30 06:27:21;;;;;;;15.35;7.45;;;;;;;;;;5037430;28;20042;-79
2022/11/30 06:29:47;;;;;;;15.50;6.70;;;;;;;;;;5029733;28;20037;-80
2022/11/30 06:32:13;;;;;;;17.48;6.78;;;6.40;99.90;;;;;;5030143;28;20186;-79
2022/11/30 06:34:39;;;;;;;18.85;7.78;;;;;;;;;;5027688;28;20322;-79
2022/11/30 06:37:05;;;;;;;20.38;7.20;;;;;;;;;;5032283;28;20085;-79
2022/11/30 06:39:31;;;;;;;13.60;7.32;;;;;;;;;;5045257;28;20040;-79
2022/11/30 06:41:57;;;;;;;17.17;7.28;;;;;;;;;;5034323;28;20060;-80
2022/11/30 06:44:23;;;;;;;15.20;6.57;;;;;;;;;;5028390;28;20468;-80
2022/11/30 06:46:48;;;;;;;19.33;7.93;;;;;;;;;;5035290;28;20022;-79
2022/11/30 06:49:15;;;;;;;17.00;8.00;;;;;;;;;;5031331;28;20265;-79
2022/11/30 06:51:42;;;;;;;12.70;7.20;;;;;;;;;;5031494;28;20396;-79
2022/11/30 06:54:08;;;;;;;18.80;7.03;;;;;;;;;;5032980;28;20051;-79
2022/11/30 06:56:34;;;;;;;16.45;6.97;;;5.50;99.90;;;;;;5026508;28;20097;-78
2022/11/30 06:59:00;;;;;;;17.88;6.88;;;;;;;;;;5027901;28;20033;-80
2022/11/30 07:01:26;;;;;;;22.30;8.30;;;;;;;;;;5024886;28;20403;-78
2022/11/30 07:03:52;;;;;;;20.85;7.38;;;;;;;;;;5035363;28;20100;-78
2022/11/30 07:06:18;;;;;;;12.18;6.68;;;;;;;;;;5037126;28;20022;-78
2022/11/30 07:08:44;;;;;;;21.73;8.00;;;;;;;;;;5032146;28;20040;-79
2022/11/30 07:11:11;;;;;;;17.13;7.60;;;;;;;;;;5013372;28;20025;-78
2022/11/30 07:13:37;;;;;;;16.77;6.50;;;;;;;;;;5027392;28;20466;-78
2022/11/30 07:16:07;;;;;;;19.85;7.30;;;;;;;;;;5030061;28;20028;-78
2022/11/30 07:18:33;;;;;;;17.10;7.97;;;;;;;;;;5027760;28;20030;-79
2022/11/30 07:21:00;;;;;;;19.85;7.93;;;;;;;;;;5027242;28;20040;-79
2022/11/30 07:26:11;;;;;;;16.63;6.50;;;;;;;;;;5035663;28;20064;-78
2022/11/30 07:28:38;;;;;;;14.65;6.28;;;;;;;;;;5043466;28;20037;-78
2022/11/30 07:31:20;;;;;;;15.18;5.88;;;;;;;;;;5026521;28;20029;-79
2022/11/30 07:33:46;;;;;;;15.82;6.47;;;6.30;99.90;;;;;;5025649;28;20108;-79
2022/11/30 07:36:12;;;;;;;14.25;7.10;;;;;;;;;;5023060;28;20025;-79
2022/11/30 07:38:38;;;;;;;18.02;6.75;;;;;;;;;;5040803;28;20125;-78
2022/11/30 07:41:05;;;;;;;15.52;5.95;;;;;;;;;;5034006;28;20061;-78
2022/11/30 07:43:31;;;;;;;16.58;6.10;;;;;;;;;;5034868;28;20065;-81
2022/11/30 07:45:58;;;;;;;16.40;7.13;;;;;;;;;;5025092;28;20034;-80
2022/11/30 07:48:24;;;;;;;19.92;7.63;;;;;;;;;;5040978;28;20501;-81
2022/11/30 07:50:50;;;;;;;19.02;7.55;;;;;;;;;;5030746;28;20045;-78
2022/11/30 07:53:16;;;;;;;17.60;7.53;;;;;;;;;;5029885;28;20033;-78
2022/11/30 07:55:42;;;;;;;26.98;9.02;;;;;;;;;;5033601;28;20076;-78
2022/11/30 07:58:09;;;;;;;16.83;7.28;;;;;;;;;;5041727;28;20201;-79
2022/11/30 08:00:38;;;;;;;20.85;7.95;;;;;;;;;;5034538;28;20021;-79
2022/11/30 08:03:05;;;;;;;18.38;8.35;;;;;;;;;;5039204;28;20029;-81
2022/11/30 08:05:31;;;;;;;17.88;8.48;;;;;;;;;;5045534;28;20086;-79
2022/11/30 08:07:57;;;;;;;24.80;9.25;;;;;;;;;;5035068;28;20025;-79
2022/11/30 08:10:23;;;;;;;14.65;6.82;;;;;;;;;;5034626;28;20083;-82
2022/11/30 08:12:49;;;;;;;23.40;9.48;;;7.20;99.90;;;;;;5033628;28;20040;-79
2022/11/30 08:15:15;;;;;;;15.93;7.15;;;;;;;;;;5035953;28;20473;-78
2022/11/30 08:17:41;;;;;;;18.48;9.50;;;;;;;;;;5036962;28;20037;-79
2022/11/30 08:20:08;;;;;;;26.00;8.95;;;6.70;99.90;;;;;;5034380;28;20055;-80
2022/11/30 08:22:35;;;;;;;17.42;6.70;;;;;;;;;;5033489;28;20045;-79
2022/11/30 08:25:01;;;;;;;22.38;8.15;;;;;;;;;;5032240;28;20128;-79
2022/11/30 08:27:27;;;;;;;23.48;7.80;;;;;;;;;;5035281;28;20038;-80
2022/11/30 08:29:53;;;;;;;22.05;8.00;;;;;;;;;;5039445;28;20037;-78
2022/11/30 08:32:19;;;;;;;18.50;7.05;;;;;;;;;;5034820;28;20057;-79
2022/11/30 08:34:46;;;;;;;15.85;6.60;;;;;;;;;;5049114;28;20060;-79
2022/11/30 08:37:12;;;;;;;20.55;7.97;;;;;;;;;;5031608;28;20486;-80
2022/11/30 08:39:38;;;;;;;18.63;8.82;;;;;;;;;;5047079;28;20041;-79
2022/11/30 08:42:04;;;;;;;16.30;7.68;;;;;;;;;;5032002;28;20585;-80
2022/11/30 08:44:30;;;;;;;23.83;9.40;;;;;;;;;;5029885;28;20157;-81
2022/11/30 08:46:56;;;;;;;23.80;8.85;;;;;;;;;;5032789;28;20040;-79
2022/11/30 08:49:22;;;;;;;18.17;8.88;;;;;;;;;;5032745;28;20120;-82
2022/11/30 08:51:49;;;;;;;17.27;7.38;;;;;;;;;;5034367;28;20096;-79
2022/11/30 08:54:14;;;;;;;22.00;8.57;;;;;;;;;;5036985;28;20037;-79
2022/11/30 08:56:40;;;;;;;16.23;7.13;;;8.20;99.90;;;;;;5026627;28;20834;-78
2022/11/30 08:59:06;;;;;;;19.52;8.57;;;;;;;;;;5033634;28;20052;-81
2022/11/30 09:01:32;;;;;;;17.17;7.30;;;;;;;;;;5035629;28;20037;-79
2022/11/30 09:03:58;;;;;;;21.88;8.38;;;;;;;;;;5035628;28;20033;-80
2022/11/30 09:06:26;;;;;;;22.80;9.30;;;;;;;;;;5027336;28;20527;-79
2022/11/30 09:08:54;;;;;;;18.58;8.82;;;;;;;;;;5037387;28;20048;-82
2022/11/30 09:11:20;;;;;;;20.08;7.97;;;;;;;;;;5036115;28;20034;-80
2022/11/30 09:13:46;;;;;;;16.08;7.07;;;;;;;;;;5034345;28;20403;-80
2022/11/30 09:16:15;;;;;;;21.90;10.73;;;7.10;99.90;;;;;;5032851;28;20458;-79
2022/11/30 09:18:41;;;;;;;18.90;7.88;;;;;;;;;;5040288;28;20058;-78
2022/11/30 09:21:08;;;;;;;16.30;7.53;;;;;;;;;;5034451;28;20029;-79
2022/11/30 09:23:34;;;;;;;18.52;7.90;;;;;;;;;;5038995;28;20033;-79
2022/11/30 09:26:05;;;;;;;19.80;8.02;;;7.90;99.90;;;;;;5033899;28;20030;-79
2022/11/30 09:28:31;;;;;;;14.35;7.20;;;;;;;;;;5028494;28;20034;-79
2022/11/30 09:31:04;;;;;;;17.52;7.80;;;;;;;;;;5040554;28;20022;-79
2022/11/30 09:33:30;;;;;;;17.08;7.78;;;8.00;99.90;;;;;;5033005;28;20038;-80
2022/11/30 09:35:57;;;;;;;21.63;9.23;;;;;;;;;;5037735;28;20479;-80
2022/11/30 09:38:23;;;;;;;18.63;8.73;;;;;;;;;;5051057;28;20033;-80
2022/11/30 09:40:53;;;;;;;26.25;9.45;;;;;;;;;;5040161;28;20263;-80
2022/11/30 09:43:40;;;;;;;17.98;8.07;;;7.20;99.90;;;;;;5036801;28;20414;-79
2022/11/30 09:46:09;;;;;;;19.15;8.50;;;;;;;;;;5034170;28;20411;-79
2022/11/30 09:49:00;;;;;;;20.38;9.23;;;7.90;99.90;;;;;;5045037;28;20399;-80
2022/11/30 09:51:35;;;;;;;20.52;9.63;;;8.00;99.90;;;;;;5035302;28;20033;-80
2022/11/30 09:54:07;;;;;;;18.05;8.25;;;;;;;;;;5035314;28;20037;-79
2022/11/30 09:56:34;;;;;;;16.02;7.90;;;;;;;;;;5032077;28;20724;-79
2022/11/30 09:59:21;;;;;;;16.40;8.98;;;8.40;99.90;;;;;;5038718;28;20037;-80
2022/11/30 10:01:47;;;;;;;28.75;10.88;;;;;;;;;;5034354;28;20038;-80
2022/11/30 10:04:27;;;;;;;23.85;10.95;;;;;;;;;;5037598;28;20021;-79
2022/11/30 10:07:21;;;;;;;17.85;7.80;;;8.80;99.90;;;;;;5038717;28;20662;-79
2022/11/30 10:09:55;;;;;;;22.10;9.18;;;;;;;;;;5023579;28;20070;-80
2022/11/30 10:12:28;;;;;;;27.80;11.77;;;;;;;;;;5029281;28;20606;-79
2022/11/30 10:14:59;;;;;;;19.02;8.48;;;8.30;99.90;;;;;;5034573;28;20407;-79
2022/11/30 10:17:47;;;;;;;20.55;8.80;;;8.70;99.90;;;;;;5031030;28;20112;-78
2022/11/30 10:20:24;;;;;;;21.48;9.85;;;8.20;99.90;;;;;;5042145;28;20077;-81
2022/11/30 10:22:50;;;;;;;30.88;9.70;;;;;;;;;;5032904;28;20087;-81
2022/11/30 10:25:25;;;;;;;24.83;8.88;;;8.60;99.90;;;;;;5037661;28;20156;-79
2022/11/30 10:27:52;;;;;;;21.63;10.00;;;;;;;;;;5033227;28;20025;-79
2022/11/30 10:30:26;;;;;;;23.88;10.18;;;;;;;;;;5037508;28;20029;-79
2022/11/30 10:32:58;;;;;;;23.17;10.57;;;9.10;99.90;;;;;;5043181;28;20142;-80
2022/11/30 10:35:34;;;;;;;30.08;11.68;;;8.80;99.90;;;;;;5034600;28;20095;-79
2022/11/30 10:38:03;;;;;;;19.75;8.82;;;;;;;;;;5030947;28;20037;-80
2022/11/30 10:40:58;;;;;;;28.02;11.57;;;;;;;;;;5047222;28;20056;-80
2022/11/30 10:43:29;;;;;;;38.13;14.10;;;8.30;99.90;;;;;;5020727;28;20039;-79
2022/11/30 10:45:55;;;;;;;31.90;11.93;;;;;;;;;;5044102;28;20026;-79
2022/11/30 10:48:30;;;;;;;32.45;13.10;;;;;;;;;;5031049;28;20213;-79
2022/11/30 10:50:58;;;;;;;26.60;12.27;;;;;;;;;;5033854;28;20036;-78
2022/11/30 10:53:24;;;;;;;23.35;10.10;;;;;;;;;;5028629;28;20026;-80
2022/11/30 10:56:13;;;;;;;19.92;9.30;;;;;;;;;;5042566;28;20041;-80
2022/11/30 10:58:58;;;;;;;21.17;8.48;;;;;;;;;;5017908;28;20483;-80
2022/11/30 11:01:35;;;;;;;29.17;10.65;;;8.40;99.90;;;;;;5030735;28;20470;-79
2022/11/30 11:04:18;;;;;;;54.35;16.95;;;;;;;;;;5033856;28;20116;-79
2022/11/30 11:06:46;;;;;;;30.40;13.53;;;8.30;99.90;;;;;;5030514;28;20025;-81
2022/11/30 11:09:24;;;;;;;26.52;10.77;;;;;;;;;;5038658;28;20068;-80
2022/11/30 11:12:13;;;;;;;27.52;11.05;;;8.40;99.90;;;;;;5032109;28;20181;-79
2022/11/30 11:14:39;;;;;;;20.13;8.68;;;;;;;;;;5025235;28;20053;-79
2022/11/30 11:17:18;;;;;;;20.38;9.73;;;8.50;99.90;;;;;;5037655;28;20029;-79
2022/11/30 11:19:45;;;;;;;30.42;10.27;;;;;;;;;;5027584;28;20033;-79
2022/11/30 11:22:25;;;;;;;45.28;15.50;;;8.40;99.90;;;;;;5029946;28;20052;-79
2022/11/30 11:25:10;;;;;;;44.70;17.20;;;8.30;99.90;;;;;;5043016;28;20025;-81
2022/11/30 11:27:36;;;;;;;25.25;10.35;;;;;;;;;;5024761;28;20033;-78
2022/11/30 11:30:16;;;;;;;21.65;7.90;;;;;;;;;;5035132;28;20425;-80
2022/11/30 11:32:57;;;;;;;19.45;8.25;;;7.40;99.90;;;;;;5025009;28;20025;-78
2022/11/30 11:35:34;;;;;;;37.75;13.65;;;;;;;;;;5040105;28;20041;-79
2022/11/30 11:38:00;;;;;;;47.53;16.02;;;;;;;;;;5029848;28;20372;-81
2022/11/30 11:40:25;;;;;;;30.67;11.60;;;;;;;;;;5040547;28;20017;-82
2022/11/30 11:42:52;;;;;;;29.30;10.80;;;;;;;;;;5028807;28;20092;-80
2022/11/30 11:45:24;;;;;;;19.58;8.00;;;;;;;;;;5039194;28;20463;-79
2022/11/30 11:48:01;;;;;;;23.58;8.25;;;;;;;;;;5034801;28;20097;-79
2022/11/30 11:50:28;;;;;;;17.80;7.43;;;7.80;99.90;;;;;;5018563;28;20029;-80
2022/11/30 11:53:06;;;;;;;20.15;7.13;;;;;;;;;;5034976;28;20098;-80
2022/11/30 11:55:33;;;;;;;18.45;7.40;;;;;;;;;;5034261;28;20029;-81
2022/11/30 11:58:01;;;;;;;15.82;6.75;;;;;;;;;;5033066;28;20021;-79
2022/11/30 12:00:27;;;;;;;20.23;7.78;;;;;;;;;;5031272;28;20086;-80
2022/11/30 12:02:56;;;;;;;14.18;6.32;;;;;;;;;;5037073;28;20425;-78
2022/11/30 12:05:33;;;;;;;15.55;7.05;;;;;;;;;;5041142;28;20029;-78
2022/11/30 12:08:04;;;;;;;21.02;6.72;;;7.60;99.90;;;;;;5028117;28;20041;-79
2022/11/30 12:10:34;;;;;;;21.90;10.30;;;;;;;;;;5034096;28;20035;-79
2022/11/30 12:13:00;;;;;;;15.35;6.90;;;;;;;;;;5039396;28;20033;-80
2022/11/30 12:15:30;;;;;;;16.88;6.93;;;;;;;;;;5039108;28;20044;-80
2022/11/30 12:18:26;;;;;;;17.08;6.82;;;;;;;;;;5032077;28;20079;-80
2022/11/30 12:21:00;;;;;;;20.48;7.40;;;;;;;;;;4950153;28;20043;-79
2022/11/30 12:23:45;;;;;;;18.85;7.43;;;;;;;;;;5037734;28;20060;-80
2022/11/30 12:26:30;;;;;;;14.15;6.07;;;;;;;;;;5021326;28;20041;-79
2022/11/30 12:29:19;;;;;;;13.52;5.70;;;8.20;99.90;;;;;;5035831;28;20033;-80
2022/11/30 12:31:50;;;;;;;12.60;6.25;;;;;;;;;;5036370;28;20036;-81
2022/11/30 12:34:29;;;;;;;13.35;6.70;;;;;;;;;;5036303;28;20038;-80
2022/11/30 12:37:29;;;;;;;8.80;4.88;;;8.20;99.90;;;;;;5037320;28;20056;-79
2022/11/30 12:40:01;;;;;;;17.33;7.50;;;;;;;;;;5033768;28;20027;-80
2022/11/30 12:42:36;;;;;;;14.77;5.35;;;;;;;;;;5039212;28;20036;-79
2022/11/30 12:45:33;;;;;;;15.68;6.70;;;8.00;99.90;;;;;;5037031;28;20022;-79
2022/11/30 12:48:17;;;;;;;13.95;5.80;;;;;;;;;;5038591;28;20187;-79
2022/11/30 12:51:02;;;;;;;16.40;5.80;;;;;;;;;;5034920;28;20029;-79
2022/11/30 12:53:31;;;;;;;13.85;6.18;;;;;;;;;;5037015;28;20461;-78
2022/11/30 12:56:28;;;;;;;13.23;5.80;;;8.00;99.90;;;;;;5030998;28;20034;-78
2022/11/30 12:59:22;;;;;;;11.70;5.28;;;;;;;;;;5029356;28;20038;-79
2022/11/30 13:01:48;;;;;;;13.18;4.30;;;;;;;;;;5025780;28;20090;-79
2022/11/30 13:04:29;;;;;;;12.80;5.60;;;7.80;99.90;;;;;;5036620;28;20026;-79
2022/11/30 13:07:18;;;;;;;12.75;5.07;;;7.90;99.90;;;;;;5046792;28;20021;-79
2022/11/30 13:09:48;;;;;;;8.77;4.63;;;;;;;;;;5036265;28;20525;-79
2022/11/30 13:12:24;;;;;;;8.07;4.53;;;;;;;;;;5038437;28;20064;-79
2022/11/30 13:14:57;;;;;;;9.50;4.50;;;7.80;99.90;;;;;;5031302;28;20041;-79
2022/11/30 13:17:23;;;;;;;9.23;4.30;;;;;;;;;;5037389;28;20025;-80
2022/11/30 13:19:54;;;;;;;8.60;4.45;;;7.90;99.90;;;;;;5040278;28;20384;-78
2022/11/30 13:22:26;;;;;;;7.38;2.67;;;;;;;;;;5024987;28;20497;-78
2022/11/30 13:25:01;;;;;;;12.07;4.40;;;8.00;99.90;;;;;;5037979;28;20048;-78
2022/11/30 13:27:41;;;;;;;9.75;4.85;;;7.60;99.90;;;;;;5025816;28;20033;-79
2022/11/30 13:30:30;;;;;;;15.40;6.78;;;7.90;99.90;;;;;;5029400;28;20108;-80
2022/11/30 13:32:56;;;;;;;9.63;4.50;;;;;;;;;;5026567;28;20033;-78
2022/11/30 13:35:28;;;;;;;12.63;5.53;;;8.10;99.90;;;;;;5034276;28;20033;-79
2022/11/30 13:38:14;;;;;;;10.20;4.47;;;7.40;99.90;;;;;;5035418;28;20101;-80
2022/11/30 13:40:40;;;;;;;10.70;4.07;;;;;;;;;;5030872;28;20033;-78
2022/11/30 13:43:14;;;;;;;8.55;3.90;;;;;;;;;;5039900;28;20438;-79
2022/11/30 13:45:40;;;;;;;7.32;3.05;;;;;;;;;;5025158;28;20055;-79
2022/11/30 13:48:17;;;;;;;6.88;2.92;;;;;;;;;;5026653;28;20041;-79
2022/11/30 13:50:46;;;;;;;9.48;4.00;;;;;;;;;;5030921;28;20037;-78
2022/11/30 13:53:25;;;;;;;6.00;3.30;;;7.10;99.90;;;;;;5031913;28;20041;-79
2022/11/30 13:55:55;;;;;;;7.43;3.30;;;;;;;;;;5027945;28;20391;-79
2022/11/30 13:58:21;;;;;;;6.47;2.92;;;;;;;;;;5023872;28;20124;-79
2022/11/30 14:01:07;;;;;;;7.63;3.58;;;;;;;;;;5023446;28;20116;-78
2022/11/30 14:03:33;;;;;;;4.70;2.70;;;;;;;;;;5028734;28;20411;-79
2022/11/30 14:06:00;;;;;;;5.82;3.55;;;;;;;;;;5026538;28;20095;-78
2022/11/30 14:08:31;;;;;;;15.27;6.78;;;;;;;;;;5031702;28;20046;-79
2022/11/30 14:11:17;;;;;;;51.42;13.45;;;7.90;99.90;;;;;;5025906;28;20025;-80
2022/11/30 14:13:43;;;;;;;18.60;6.97;;;;;;;;;;5032834;28;20064;-79
2022/11/30 14:16:40;;;;;;;9.63;4.15;;;6.60;99.90;;;;;;5035226;28;20083;-80
2022/11/30 14:19:07;;;;;;;9.27;3.33;;;;;;;;;;5011881;28;20037;-80
2022/11/30 14:21:34;;;;;;;7.50;3.88;;;;;;;;;;5031031;28;20038;-80
2022/11/30 14:24:18;;;;;;;8.80;3.22;;;;;;;;;;5032326;28;20029;-80
2022/11/30 14:26:46;;;;;;;10.25;4.07;;;;;;;;;;5029522;28;20104;-79
2022/11/30 14:29:16;;;;;;;6.45;3.38;;;;;;;;;;5023919;28;20087;-81